Time;durP1;ratioP1;P1;durP2;ratioP2;P2;SDS_P1;SDS_P2;PMS_P1;PMS_P2;Temp;Humidity;BMP_temperature;BMP_pressure;BME280_temperature;BME280_humidity;BME280_pressure;Samples;Min_cycle;Max_cycle;Signal;HPM_P1;HPM_P2
2022/04/23 00:01:43;;;;;;;16.48;10.13;;;;;;;14.03;50.48;100455.41;4972372;28;123875;-77
2022/04/23 00:04:12;;;;;;;15.30;9.95;;;;;;;14.00;50.85;100460.97;4969040;28;124853;-77
2022/04/23 00:06:40;;;;;;;18.25;10.73;;;;;;;13.97;50.76;100445.19;4963552;28;120203;-77
2022/04/23 00:09:07;;;;;;;13.27;10.07;;;;;;;13.94;50.86;100450.72;4969242;28;120452;-77
2022/04/23 00:11:34;;;;;;;14.10;10.20;;;;;;;13.94;50.93;100456.06;4971012;28;123695;-77
2022/04/23 00:14:04;;;;;;;14.35;10.30;;;;;;;13.94;51.03;100451.56;4989137;28;123594;-77
2022/04/23 00:16:32;;;;;;;14.98;9.98;;;;;;;13.92;50.91;100442.84;4967160;28;118453;-77
2022/04/23 00:18:59;;;;;;;16.00;10.48;;;;;;;13.91;51.07;100442.94;4983789;28;118907;-77
2022/04/23 00:21:28;;;;;;;18.30;10.70;;;;;;;13.91;51.20;100450.91;4974251;28;123987;-78
2022/04/23 00:23:55;;;;;;;18.15;10.88;;;;;;;13.90;51.21;100449.19;4968396;28;123518;-77
2022/04/23 00:26:22;;;;;;;15.90;10.43;;;;;;;13.91;51.32;100445.59;4950228;28;118118;-78
2022/04/23 00:28:51;;;;;;;15.73;11.23;;;;;;;13.88;51.33;100446.66;4975137;28;119416;-77
2022/04/23 00:31:19;;;;;;;16.70;11.00;;;;;;;13.88;51.47;100444.00;4977577;28;124762;-77
2022/04/23 00:33:46;;;;;;;17.23;10.95;;;;;;;13.86;51.18;100453.00;4974125;28;123553;-77
2022/04/23 00:36:13;;;;;;;17.33;10.77;;;;;;;13.86;51.38;100447.69;4978007;28;120319;-77
2022/04/23 00:38:42;;;;;;;15.35;10.88;;;;;;;13.85;51.41;100449.50;4969987;28;118905;-77
2022/04/23 00:41:43;;;;;;;15.77;10.30;;;;;;;13.85;51.43;100451.31;4975623;28;124058;-77
2022/04/23 00:44:03;;;;;;;17.25;11.73;;;;;;;13.82;51.56;100447.91;4985201;28;123980;-77
2022/04/23 00:46:30;;;;;;;17.35;11.55;;;;;;;13.80;51.52;100449.78;4971543;28;119728;-77
2022/04/23 00:49:00;;;;;;;16.45;11.23;;;;;;;13.80;51.41;100448.94;4983129;28;118017;-77
2022/04/23 00:51:28;;;;;;;21.17;12.23;;;;;;;13.78;51.89;100457.03;4973011;28;125518;-77
2022/04/23 00:53:57;;;;;;;19.55;12.05;;;;;;;13.76;51.98;100453.59;4990643;28;124246;-77
2022/04/23 00:56:25;;;;;;;17.83;12.23;;;;;;;13.74;52.18;100458.19;4985217;28;119176;-76
2022/04/23 00:58:53;;;;;;;18.33;12.57;;;;;;;13.72;52.20;100446.78;4968776;28;118727;-76
2022/04/23 01:01:23;;;;;;;18.33;11.90;;;;;;;13.69;52.27;100446.97;4974495;28;123792;-76
2022/04/23 01:03:52;;;;;;;19.83;13.00;;;;;;;13.66;52.59;100441.88;4971097;28;123646;-76
2022/04/23 01:06:20;;;;;;;17.90;12.25;;;;;;;13.65;52.60;100440.13;4987778;28;119302;-77
2022/04/23 01:08:47;;;;;;;21.25;12.88;;;;;;;13.64;52.90;100443.78;4994756;28;118296;-77
2022/04/23 01:11:14;;;;;;;16.70;12.05;;;;;;;13.63;52.79;100442.06;4969212;28;124945;-77
2022/04/23 01:13:44;;;;;;;18.30;12.45;;;;;;;13.62;52.92;100440.34;4976638;28;124995;-77
2022/04/23 01:16:11;;;;;;;20.73;13.18;;;;;;;13.60;53.24;100437.78;4977421;28;119107;-77
2022/04/23 01:18:42;;;;;;;20.75;12.90;;;;;;;13.59;53.29;100437.88;4973709;28;119139;-77
2022/04/23 01:21:10;;;;;;;19.13;12.82;;;;;;;13.59;53.43;100443.19;4986732;28;124402;-77
2022/04/23 01:23:42;;;;;;;19.00;12.73;;;;;;;13.58;53.18;100452.13;4987782;28;125446;-78
2022/04/23 01:26:10;;;;;;;19.30;12.48;;;;;;;13.55;53.34;100445.19;4964785;28;120311;-77
2022/04/23 01:28:38;;;;;;;20.15;13.23;;;;;;;13.55;53.17;100455.00;4984477;28;119560;-77
2022/04/23 01:31:06;;;;;;;19.02;12.98;;;;;;;13.54;53.46;100458.59;4975141;28;123481;-77
2022/04/23 01:33:34;;;;;;;20.67;12.70;;;;;;;13.53;53.42;100451.59;4972451;28;124282;-77
2022/04/23 01:36:02;;;;;;;20.85;13.30;;;;;;;13.52;53.13;100449.88;4967372;28;119986;-78
2022/04/23 01:38:29;;;;;;;19.70;13.25;;;;;;;13.51;53.37;100453.50;4952848;28;119099;-78
2022/04/23 01:40:56;;;;;;;21.65;14.25;;;;;;;13.51;53.50;100453.50;4972103;28;124142;-78
2022/04/23 01:43:24;;;;;;;20.77;13.93;;;;;;;13.49;53.39;100460.72;4972219;28;125010;-78
2022/04/23 01:45:51;;;;;;;21.48;13.57;;;;;;;13.47;53.34;100451.97;4980215;28;119093;-79
2022/04/23 01:48:18;;;;;;;22.20;14.23;;;;;;;13.47;53.30;100462.59;4983498;28;118662;-78
2022/04/23 01:50:45;;;;;;;21.55;13.63;;;;;;;13.47;53.46;100467.91;4972612;28;124359;-77
2022/04/23 01:53:12;;;;;;;21.73;14.88;;;;;;;13.42;53.48;100466.41;4986481;28;123628;-78
2022/04/23 01:55:39;;;;;;;20.88;14.00;;;;;;;13.42;53.63;100466.41;4973676;28;120099;-78
2022/04/23 01:58:06;;;;;;;20.73;13.15;;;;;;;13.40;53.24;100463.00;4972958;28;119571;-78
2022/04/23 02:00:33;;;;;;;22.70;14.98;;;;;;;13.38;53.37;100459.56;4986733;28;124831;-78
2022/04/23 02:03:01;;;;;;;20.48;13.98;;;;;;;13.37;53.56;100465.88;4983896;28;123470;-78
2022/04/23 02:05:28;;;;;;;21.98;13.82;;;;;;;13.34;53.51;100466.03;4967087;28;119504;-78
2022/04/23 02:07:55;;;;;;;21.95;14.30;;;;;;;13.34;53.68;100457.22;4968681;28;117969;-78
2022/04/23 02:10:22;;;;;;;21.90;14.48;;;;;;;13.31;53.80;100458.25;4969940;28;121933;-78
2022/04/23 02:12:49;;;;;;;23.77;14.65;;;;;;;13.31;53.64;100460.91;4971869;28;122572;-78
2022/04/23 02:15:17;;;;;;;21.35;15.00;;;;;;;13.30;53.74;100463.63;4965809;28;120694;-78
2022/04/23 02:17:45;;;;;;;23.40;15.55;;;;;;;13.28;54.11;100458.44;4966771;28;119442;-78
2022/04/23 02:20:14;;;;;;;21.88;14.73;;;;;;;13.26;54.00;100455.00;4972875;28;124078;-78
2022/04/23 02:22:42;;;;;;;23.90;15.05;;;;;;;13.24;53.80;100456.88;4970211;28;123516;-79
2022/04/23 02:25:09;;;;;;;22.10;14.85;;;;;;;13.23;53.96;100455.19;4965829;28;119707;-78
2022/04/23 02:27:44;;;;;;;24.90;15.82;;;;;;;13.20;54.00;100450.06;4972439;28;119405;-78
2022/04/23 02:30:13;;;;;;;24.33;15.50;;;;;;;13.19;54.12;100459.00;4982280;28;124898;-78
2022/04/23 02:32:41;;;;;;;23.02;15.77;;;;;;;13.17;53.98;100460.91;4965457;28;123516;-78
2022/04/23 02:35:10;;;;;;;22.70;14.82;;;;;;;13.16;53.98;100453.84;4987198;28;119815;-78
2022/04/23 02:37:37;;;;;;;25.02;15.82;;;;;;;13.15;54.06;100468.13;4966697;28;117881;-77
2022/04/23 02:40:06;;;;;;;24.92;15.57;;;;;;;13.14;53.98;100463.75;4965000;28;124759;-79
2022/04/23 02:42:37;;;;;;;20.50;14.55;;;;;;;13.14;54.08;100469.06;4981738;28;125017;-79
2022/04/23 02:45:06;;;;;;;22.67;15.00;;;;;;;13.12;54.15;100473.63;4965738;28;119527;-78
2022/04/23 02:47:47;;;;;;;24.25;15.57;;;;;;;13.12;54.10;100468.31;4987496;28;119808;-78
2022/04/23 02:50:21;;;;;;;26.35;14.93;;;;;;;13.12;54.25;100468.31;4967090;28;123748;-78
2022/04/23 02:52:48;;;;;;;23.33;15.63;;;;;;;13.12;54.30;100458.50;4964680;28;123246;-78
2022/04/23 02:55:16;;;;;;;25.10;16.05;;;;;;;13.16;54.18;100461.84;4967520;28;118686;-78
2022/04/23 02:57:43;;;;;;;24.92;15.15;;;;;;;13.17;54.19;100459.09;4969887;28;120447;-79
2022/04/23 03:00:11;;;;;;;23.98;15.50;;;;;;;13.19;54.42;100456.34;4970100;28;123856;-78
2022/04/23 03:02:39;;;;;;;25.83;16.08;;;;;;;13.21;54.60;100451.78;4969230;28;123990;-79
2022/04/23 03:05:11;;;;;;;26.05;15.77;;;;;;;13.22;54.82;100450.81;4988212;28;119431;-78
2022/04/23 03:07:39;;;;;;;24.17;15.43;;;;;;;13.23;54.24;100452.53;4986304;28;119938;-80
2022/04/23 03:10:09;;;;;;;24.48;15.63;;;;;;;13.23;54.37;100445.41;4974028;28;124005;-79
2022/04/23 03:12:38;;;;;;;26.45;16.20;;;;;;;13.23;54.33;100456.03;4968294;28;125358;-78
2022/04/23 03:15:07;;;;;;;25.77;16.50;;;;;;;13.23;54.22;100449.88;4980827;28;118916;-80
2022/04/23 03:17:36;;;;;;;25.80;15.88;;;;;;;13.21;54.44;100446.47;4964920;28;120601;-78
2022/04/23 03:20:04;;;;;;;25.13;15.90;;;;;;;13.21;54.60;100457.09;4985129;28;123997;-78
2022/04/23 03:22:31;;;;;;;26.70;16.83;;;;;;;13.20;54.77;100447.38;4971757;28;124154;-78
2022/04/23 03:24:58;;;;;;;24.42;16.08;;;;;;;13.20;54.60;100455.38;4981076;28;118712;-78
2022/04/23 03:27:26;;;;;;;26.38;16.30;;;;;;;13.18;54.62;100441.31;4968741;28;119353;-79
2022/04/23 03:29:53;;;;;;;28.85;17.48;;;;;;;13.18;54.63;100436.00;4965353;28;124053;-78
2022/04/23 03:32:21;;;;;;;26.52;17.10;;;;;;;13.18;54.83;100436.00;4968269;28;124695;-78
2022/04/23 03:34:49;;;;;;;23.60;16.33;;;;;;;13.18;54.82;100441.31;4981215;28;119232;-78
2022/04/23 03:37:16;;;;;;;24.67;15.88;;;;;;;13.19;54.87;100437.72;4965315;28;118894;-78
2022/04/23 03:39:44;;;;;;;25.77;16.08;;;;;;;13.17;54.91;100434.31;4965756;28;123694;-79
2022/04/23 03:42:11;;;;;;;26.15;16.48;;;;;;;13.18;54.90;100438.66;4963507;28;123994;-79
2022/04/23 03:44:38;;;;;;;26.02;16.80;;;;;;;13.17;55.09;100432.50;4986093;28;119340;-78
2022/04/23 03:47:06;;;;;;;26.20;16.35;;;;;;;13.18;54.85;100441.31;4968415;28;118811;-79
2022/04/23 03:49:33;;;;;;;26.30;16.23;;;;;;;13.18;54.91;100438.66;4971146;28;123741;-80
2022/04/23 03:52:00;;;;;;;25.10;16.25;;;;;;;13.18;54.91;100433.34;4965692;28;123719;-78
2022/04/23 03:54:27;;;;;;;26.55;16.83;;;;;;;13.17;54.97;100429.00;4968071;28;120270;-79
2022/04/23 03:56:54;;;;;;;25.50;16.70;;;;;;;13.15;55.32;100426.41;4966253;28;118854;-78
2022/04/23 03:59:23;;;;;;;25.92;16.67;;;;;;;13.14;55.30;100423.84;4967436;28;124120;-79
2022/04/23 04:01:54;;;;;;;27.80;15.85;;;;;;;13.13;55.16;100416.81;4970426;28;125257;-78
2022/04/23 04:04:22;;;;;;;27.08;16.98;;;;;;;13.12;55.37;100425.75;4970388;28;119645;-78
2022/04/23 04:06:49;;;;;;;28.98;17.45;;;;;;;13.10;55.29;100427.66;4983770;28;118717;-78
2022/04/23 04:09:16;;;;;;;26.73;17.50;;;;;;;13.09;55.30;100431.25;4985592;28;123354;-78
2022/04/23 04:12:01;;;;;;;26.50;15.80;;;;;;;13.07;55.21;100422.53;4968458;28;123750;-79
2022/04/23 04:14:34;;;;;;;26.67;16.73;;;;;;;13.03;55.27;100422.72;4961332;28;119604;-78
2022/04/23 04:17:07;;;;;;;28.60;17.33;;;;;;;13.00;55.45;100428.22;4981716;28;119393;-78
2022/04/23 04:19:34;;;;;;;26.77;16.35;;;;;;;12.99;55.28;100421.19;4966596;28;123770;-78
2022/04/23 04:22:03;;;;;;;26.08;16.88;;;;;;;12.99;55.43;100425.66;4968892;28;123937;-78
2022/04/23 04:24:31;;;;;;;27.08;17.30;;;;;;;12.97;55.61;100417.78;4987049;28;119045;-79
2022/04/23 04:26:58;;;;;;;28.67;18.35;;;;;;;12.97;55.66;100416.94;4970057;28;119532;-78
2022/04/23 04:29:26;;;;;;;29.98;17.08;;;;;;;12.95;55.74;100427.66;4970966;28;124025;-78
2022/04/23 04:31:53;;;;;;;29.15;17.50;;;;;;;12.95;55.60;100425.00;4968174;28;123664;-78
2022/04/23 04:34:28;;;;;;;27.85;17.02;;;;;;;12.95;55.69;100419.69;4967399;28;119202;-78
2022/04/23 04:37:05;;;;;;;;;;;;;;;12.93;55.39;100410.94;4969764;28;118593;-78
2022/04/23 04:39:33;;;;;;;26.63;17.35;;;;;;;12.94;55.62;100407.34;4976332;28;124404;-78
2022/04/23 04:42:01;;;;;;;26.17;16.67;;;;;;;12.95;55.88;100416.16;4969828;28;124364;-78
2022/04/23 04:44:28;;;;;;;24.83;16.98;;;;;;;12.94;56.06;100415.31;4966282;28;120284;-79
2022/04/23 04:46:55;;;;;;;27.02;17.38;;;;;;;12.93;56.10;100405.63;4971330;28;119688;-78
2022/04/23 04:49:22;;;;;;;26.35;16.63;;;;;;;12.95;56.40;100413.50;4983577;28;123761;-78
2022/04/23 04:51:50;;;;;;;26.23;16.60;;;;;;;12.96;56.12;100416.09;4984181;28;123327;-78
2022/04/23 04:54:18;;;;;;;27.33;17.40;;;;;;;12.96;56.16;100410.75;4991597;28;119349;-77
2022/04/23 04:56:45;;;;;;;26.30;17.88;;;;;;;12.99;56.17;100415.88;4973028;28;118745;-78
2022/04/23 04:59:12;;;;;;;27.92;17.05;;;;;;;13.00;56.13;100416.75;4987679;28;123221;-79
2022/04/23 05:01:40;;;;;;;26.20;16.50;;;;;;;13.01;56.46;100419.28;4989988;28;123290;-78
2022/04/23 05:04:07;;;;;;;24.35;16.70;;;;;;;13.04;56.40;100421.75;4977177;28;119001;-79
2022/04/23 05:06:34;;;;;;;27.65;17.27;;;;;;;13.09;56.26;100425.94;4970924;28;119675;-79
2022/04/23 05:09:02;;;;;;;25.83;16.50;;;;;;;13.12;56.27;100431.91;4949703;28;123443;-78
2022/04/23 05:11:29;;;;;;;24.60;15.75;;;;;;;13.16;55.94;100427.25;4982339;28;122585;-78
2022/04/23 05:13:56;;;;;;;26.20;16.30;;;;;;;13.19;56.22;100432.41;4973584;28;119157;-78
2022/04/23 05:16:23;;;;;;;26.20;16.42;;;;;;;13.21;56.14;100425.19;4975343;28;117834;-78
2022/04/23 05:18:50;;;;;;;27.60;16.30;;;;;;;13.24;55.71;100427.63;4981723;28;124236;-78
2022/04/23 05:21:17;;;;;;;27.52;17.42;;;;;;;13.27;55.94;100430.09;4954767;28;122922;-78
2022/04/23 05:23:45;;;;;;;26.95;17.08;;;;;;;13.29;56.11;100428.19;4988751;28;118570;-78
2022/04/23 05:26:12;;;;;;;27.63;16.63;;;;;;;13.32;56.10;100422.72;4970925;28;118870;-79
2022/04/23 05:28:41;;;;;;;25.83;16.90;;;;;;;13.37;55.97;100425.97;4975786;28;124982;-78
2022/04/23 05:31:09;;;;;;;28.75;17.60;;;;;;;13.39;55.80;100426.72;4981309;28;123958;-79
2022/04/23 05:33:36;;;;;;;26.63;16.38;;;;;;;13.43;56.09;100427.38;4973986;28;120025;-79
2022/04/23 05:36:06;;;;;;;26.05;17.75;;;;;;;13.48;56.01;100427.06;4971993;28;119457;-78
2022/04/23 05:38:34;;;;;;;24.80;16.60;;;;;;;13.52;56.11;100423.25;4972764;28;124918;-78
2022/04/23 05:41:02;;;;;;;23.25;16.45;;;;;;;13.56;56.07;100430.97;4968919;28;123887;-78
2022/04/23 05:43:30;;;;;;;25.88;16.77;;;;;;;13.61;56.04;100438.63;4967186;28;120020;-79
2022/04/23 05:45:57;;;;;;;25.08;16.17;;;;;;;13.63;55.84;100440.22;4969807;28;118809;-78
2022/04/23 05:48:24;;;;;;;23.52;15.73;;;;;;;13.67;55.81;100427.59;4973243;28;124161;-79
2022/04/23 05:50:52;;;;;;;25.00;17.60;;;;;;;13.72;55.75;100430.81;4985164;28;123403;-77
2022/04/23 05:53:19;;;;;;;25.15;17.20;;;;;;;13.77;56.10;100434.03;4981312;28;118301;-78
2022/04/23 05:55:46;;;;;;;24.40;15.95;;;;;;;13.80;55.64;100433.81;4975861;28;117771;-78
2022/04/23 05:58:13;;;;;;;24.05;16.63;;;;;;;13.86;55.73;100426.41;4967984;28;122548;-78
2022/04/23 06:00:40;;;;;;;25.05;16.58;;;;;;;13.90;55.71;100439.41;4970494;28;123794;-78
2022/04/23 06:03:07;;;;;;;25.60;16.42;;;;;;;13.96;55.84;100427.50;4976431;28;119202;-78
2022/04/23 06:05:35;;;;;;;24.90;17.02;;;;;;;14.01;55.64;100428.91;4984976;28;116948;-78
2022/04/23 06:08:02;;;;;;;24.08;16.58;;;;;;;14.06;55.51;100433.94;4984457;28;124626;-78
2022/04/23 06:10:29;;;;;;;25.67;15.85;;;;;;;14.10;55.32;100426.59;4968694;28;123595;-78
2022/04/23 06:12:56;;;;;;;23.88;16.77;;;;;;;14.13;55.23;100429.91;4966208;28;118975;-78
2022/04/23 06:15:23;;;;;;;24.90;16.67;;;;;;;14.19;55.15;100418.84;4965778;28;118210;-78
2022/04/23 06:17:50;;;;;;;24.40;16.15;;;;;;;14.25;55.49;100427.38;4972371;28;124806;-78
2022/04/23 06:20:18;;;;;;;24.90;15.35;;;;;;;14.30;55.29;100430.59;4973083;28;123857;-79
2022/04/23 06:22:45;;;;;;;24.70;15.95;;;;;;;14.36;55.23;100414.19;4973912;28;120074;-77
2022/04/23 06:25:12;;;;;;;23.35;15.88;;;;;;;14.41;55.13;100422.72;4974282;28;120376;-77
2022/04/23 06:27:39;;;;;;;24.95;16.30;;;;;;;14.47;55.06;100411.66;4984375;28;123252;-77
2022/04/23 06:30:09;;;;;;;25.08;17.17;;;;;;;14.54;55.14;100412.94;4979492;28;123256;-78
2022/04/23 06:32:38;;;;;;;23.83;16.80;;;;;;;14.62;54.94;100414.22;4983847;28;119560;-77
2022/04/23 06:35:06;;;;;;;24.98;16.65;;;;;;;14.70;55.03;100412.75;4970069;28;119373;-77
2022/04/23 06:37:41;;;;;;;24.88;16.77;;;;;;;14.79;55.01;100411.28;4973302;28;123787;-77
2022/04/23 06:40:11;;;;;;;22.63;15.98;;;;;;;14.88;54.63;100407.97;4981322;28;124109;-77
2022/04/23 06:42:39;;;;;;;22.55;15.55;;;;;;;14.98;54.58;100403.69;4969334;28;118510;-77
2022/04/23 06:45:07;;;;;;;22.00;16.20;;;;;;;15.09;54.31;100413.59;4972617;28;118666;-77
2022/04/23 06:47:34;;;;;;;23.13;15.98;;;;;;;15.18;54.32;100417.41;4992001;28;122939;-77
2022/04/23 06:50:01;;;;;;;24.10;16.17;;;;;;;15.29;54.01;100409.50;4987304;28;122783;-77
2022/04/23 06:52:28;;;;;;;22.23;16.02;;;;;;;15.38;53.80;100403.50;4989895;28;120281;-77
2022/04/23 06:54:56;;;;;;;24.45;15.60;;;;;;;15.49;53.83;100409.88;4954055;28;118384;-77
2022/04/23 06:57:24;;;;;;;25.65;16.83;;;;;;;15.59;53.60;100405.56;4986899;28;123957;-77
2022/04/23 06:59:51;;;;;;;24.05;16.27;;;;;;;15.71;53.41;100415.34;4973513;28;124459;-77
2022/04/23 07:02:19;;;;;;;24.50;16.30;;;;;;;15.84;53.27;100404.66;4971327;28;118846;-77
2022/04/23 07:04:47;;;;;;;21.17;15.57;;;;;;;15.98;53.06;100411.63;4979476;28;118730;-77
2022/04/23 07:07:14;;;;;;;22.83;16.02;;;;;;;16.10;52.79;100399.16;4973000;28;125807;-77
2022/04/23 07:09:41;;;;;;;22.83;16.63;;;;;;;16.19;52.40;100408.31;4977992;28;124022;-78
2022/04/23 07:12:09;;;;;;;23.10;16.58;;;;;;;16.27;52.14;100406.75;4972719;28;120418;-78
2022/04/23 07:14:38;;;;;;;24.75;16.20;;;;;;;16.40;52.29;100400.47;4976973;28;119569;-77
2022/04/23 07:17:07;;;;;;;24.50;16.52;;;;;;;16.50;51.97;100407.69;4970063;28;124334;-77
2022/04/23 07:19:39;;;;;;;23.50;15.55;;;;;;;16.64;51.84;100405.78;4972311;28;125351;-78
2022/04/23 07:22:08;;;;;;;21.65;15.35;;;;;;;16.76;51.53;100402.13;4990228;28;118815;-77
2022/04/23 07:24:37;;;;;;;22.17;15.93;;;;;;;16.84;50.67;100394.41;4979985;28;119140;-78
2022/04/23 07:27:05;;;;;;;22.95;16.13;;;;;;;16.87;50.57;100394.13;4979201;28;124809;-77
2022/04/23 07:29:32;;;;;;;23.50;16.27;;;;;;;16.92;50.25;100402.66;4976963;28;122740;-78
2022/04/23 07:32:00;;;;;;;21.40;15.35;;;;;;;17.03;50.59;100406.34;4986153;28;119262;-76
2022/04/23 07:37:28;;;;;;;22.02;16.02;;;;;;;17.23;50.13;100394.03;4977256;28;123651;-75
2022/04/23 07:40:01;;;;;;;22.27;15.98;;;;;;;17.30;50.09;100396.06;4980855;28;123754;-75
2022/04/23 07:42:28;;;;;;;23.23;16.05;;;;;;;17.42;50.01;100393.38;4985834;28;119509;-75
2022/04/23 07:44:55;;;;;;;23.05;15.95;;;;;;;17.52;49.98;100389.00;4991323;28;118201;-75
2022/04/23 07:47:23;;;;;;;20.60;15.32;;;;;;;17.63;49.44;100391.66;4984625;28;124787;-76
2022/04/23 07:49:50;;;;;;;21.23;15.52;;;;;;;17.71;49.06;100383.81;4976948;28;124046;-75
2022/04/23 07:52:17;;;;;;;21.77;15.35;;;;;;;17.78;48.90;100394.03;4964470;28;117977;-75
2022/04/23 07:54:44;;;;;;;23.15;15.43;;;;;;;17.85;48.73;100379.19;4968264;28;118940;-76
2022/04/23 07:57:12;;;;;;;20.58;15.05;;;;;;;17.91;48.97;100381.34;4967630;28;123965;-76
2022/04/23 07:59:43;;;;;;;20.95;15.20;;;;;;;18.03;48.60;100383.00;4981837;28;122841;-76
2022/04/23 08:02:11;;;;;;;21.48;14.85;;;;;;;18.15;48.62;100385.63;4987555;28;120606;-76
2022/04/23 08:04:38;;;;;;;19.30;14.50;;;;;;;18.20;47.95;100378.06;4978071;28;118754;-75
2022/04/23 08:07:05;;;;;;;20.98;15.02;;;;;;;18.23;47.07;100372.44;4996049;28;123568;-76
2022/04/23 08:09:39;;;;;;;23.33;15.38;;;;;;;18.22;47.08;100376.94;4973881;28;123319;-76
2022/04/23 08:12:08;;;;;;;20.65;14.63;;;;;;;18.25;47.68;100375.81;4978342;28;118680;-76
2022/04/23 08:14:36;;;;;;;20.67;15.40;;;;;;;18.32;46.95;100368.13;4975379;28;119086;-76
2022/04/23 08:17:03;;;;;;;22.52;16.67;;;;;;;18.37;46.37;100369.44;4962338;28;123952;-75
2022/04/23 08:19:30;;;;;;;19.55;14.30;;;;;;;18.37;46.08;100372.09;4965413;28;123767;-75
2022/04/23 08:21:57;;;;;;;20.70;15.70;;;;;;;18.40;46.00;100358.44;4964489;28;119213;-76
2022/04/23 08:24:24;;;;;;;20.67;14.90;;;;;;;18.42;46.24;100367.22;4967731;28;119081;-75
2022/04/23 08:26:51;;;;;;;22.52;15.90;;;;;;;18.48;46.00;100366.69;4970837;28;125113;-75
2022/04/23 08:32:05;;;;;;;20.98;14.93;;;;;;;18.52;46.15;100363.75;4968945;28;119205;-75
2022/04/23 08:34:32;;;;;;;20.15;14.48;;;;;;;18.61;46.32;100365.59;4969082;28;118959;-75
2022/04/23 08:36:59;;;;;;;19.95;14.57;;;;;;;18.73;46.42;100364.56;4980384;28;124268;-75
2022/04/23 08:39:27;;;;;;;22.05;15.32;;;;;;;18.85;46.14;100368.03;4991755;28;125129;-74
2022/04/23 08:41:54;;;;;;;19.67;14.35;;;;;;;18.95;46.07;100357.31;4992822;28;119329;-74
2022/04/23 08:44:21;;;;;;;20.52;14.68;;;;;;;19.04;45.69;100369.94;4974495;28;118926;-75
2022/04/23 08:46:52;;;;;;;21.25;15.07;;;;;;;19.12;45.69;100354.00;4983848;28;123821;-74
2022/04/23 08:49:19;;;;;;;20.77;15.38;;;;;;;19.21;45.70;100363.06;4975204;28;124296;-75
2022/04/23 08:51:52;;;;;;;20.88;14.88;;;;;;;19.25;45.01;100376.09;4970861;28;120150;-75
2022/04/23 08:54:23;;;;;;;19.75;16.25;;;;;;;19.23;44.37;100367.34;4968786;28;120732;-76
2022/04/23 08:56:50;;;;;;;20.92;15.60;;;;;;;19.21;44.46;100352.31;4974788;28;124038;-75
2022/04/23 08:59:20;;;;;;;22.05;16.25;;;;;;;19.21;44.57;100363.94;4991254;28;124647;-76
2022/04/23 09:01:54;;;;;;;24.40;15.75;;;;;;;19.29;44.67;100359.69;4972071;28;118943;-75
2022/04/23 09:04:21;;;;;;;21.15;15.30;;;;;;;19.36;44.46;100366.22;4980593;28;118661;-76
2022/04/23 09:06:49;;;;;;;21.42;15.20;;;;;;;19.39;44.31;100369.47;4958128;28;123945;-76
2022/04/23 09:09:21;;;;;;;20.90;14.65;;;;;;;19.41;44.16;100370.19;4981004;28;122760;-76
2022/04/23 09:11:55;;;;;;;20.15;14.88;;;;;;;19.42;44.04;100371.91;4981962;28;118357;-76
2022/04/23 09:14:33;;;;;;;23.92;16.05;;;;;;;19.41;44.21;100366.66;4979117;28;119617;-76
2022/04/23 09:25:45;;;;;;;21.60;15.70;;;;;;;19.69;43.79;100372.22;4968642;28;118450;-76
2022/04/23 09:28:17;;;;;;;21.15;16.35;;;;;;;19.74;43.11;100364.59;4969303;28;123456;-75
2022/04/23 09:30:50;;;;;;;23.23;15.95;;;;;;;19.79;43.42;100383.84;4968506;28;123820;-76
2022/04/23 09:33:18;;;;;;;21.70;15.13;;;;;;;19.85;43.42;100367.16;4967620;28;118914;-76
2022/04/23 09:35:59;;;;;;;21.27;15.13;;;;;;;19.90;43.30;100359.53;4975971;28;118656;-75
2022/04/23 09:38:26;;;;;;;21.85;16.17;;;;;;;19.96;43.10;100358.97;4987769;28;123879;-76
2022/04/23 09:40:57;;;;;;;24.58;15.77;;;;;;;20.01;43.15;100364.75;4987387;28;123534;-77
2022/04/23 09:43:29;;;;;;;39.00;17.75;;;;;;;20.09;42.45;100368.59;4983021;28;118675;-75
2022/04/23 09:46:03;;;;;;;23.60;15.27;;;;;;;20.15;43.15;100357.25;4969262;28;119568;-75
2022/04/23 09:49:03;;;;;;;27.80;16.55;;;;;;;20.28;42.80;100363.19;4975386;28;124039;-76
2022/04/23 09:51:31;;;;;;;21.92;15.50;;;;;;;20.38;42.65;100364.03;4983476;28;124337;-76
2022/04/23 09:53:58;;;;;;;21.55;15.27;;;;;;;20.50;42.68;100356.63;4973245;28;119361;-74
2022/04/23 09:56:26;;;;;;;22.65;15.13;;;;;;;20.63;42.59;100361.72;4979085;28;118513;-75
2022/04/23 09:58:55;;;;;;;21.25;15.60;;;;;;;20.72;41.69;100366.25;4991196;28;122550;-74
2022/04/23 10:01:23;;;;;;;21.80;16.52;;;;;;;20.73;41.13;100367.91;4984558;28;123151;-75
2022/04/23 10:04:02;;;;;;;24.92;16.25;;;;;;;20.73;41.29;100367.91;4969836;28;119574;-75
2022/04/23 10:06:36;;;;;;;23.95;16.95;;;;;;;20.72;40.84;100363.53;4973129;28;119835;-75
2022/04/23 10:09:05;;;;;;;23.20;16.73;;;;;;;20.71;41.00;100364.53;4986282;28;124666;-74
2022/04/23 10:11:37;;;;;;;23.27;16.60;;;;;;;20.72;40.99;100371.63;4987184;28;124523;-75
2022/04/23 10:14:06;;;;;;;23.60;15.98;;;;;;;20.74;41.46;100358.88;4981111;28;120121;-74
2022/04/23 10:16:34;;;;;;;22.30;16.10;;;;;;;20.78;41.49;100365.63;4989307;28;119018;-75
2022/04/23 10:19:02;;;;;;;23.30;17.23;;;;;;;20.80;41.10;100363.66;4968730;28;123610;-75
2022/04/23 10:21:49;;;;;;;23.67;17.10;;;;;;;20.80;40.80;100358.25;4980581;28;124951;-75
2022/04/23 10:24:27;;;;;;;24.38;17.17;;;;;;;20.78;40.65;100354.88;4974479;28;119396;-74
2022/04/23 10:26:59;;;;;;;33.88;18.00;;;;;;;20.82;40.92;100350.03;4978444;28;119086;-75
2022/04/23 10:29:27;;;;;;;23.33;16.63;;;;;;;20.96;41.41;100356.78;4970368;28;123695;-75
2022/04/23 10:32:22;;;;;;;22.80;15.35;;;;;;;21.14;41.37;100348.78;4984099;28;121590;-76
2022/04/23 10:34:49;;;;;;;24.13;16.08;;;;;;;21.28;41.14;100336.63;4972836;28;120247;-75
2022/04/23 10:37:24;;;;;;;29.90;15.85;;;;;;;21.37;40.46;100346.50;4965650;28;119995;-76
2022/04/23 10:39:51;;;;;;;;;;;;;;;21.37;40.76;100341.97;4985903;28;123585;-76
2022/04/23 10:42:31;;;;;;;21.00;15.00;;;;;;;21.49;40.72;100342.66;4999221;28;123326;-76
2022/04/23 10:45:06;;;;;;;22.77;15.68;;;;;;;21.65;40.24;100341.09;4988068;28;119314;-76
2022/04/23 10:47:34;;;;;;;21.30;14.68;;;;;;;21.76;40.21;100338.19;4984656;28;118428;-76
2022/04/23 10:50:22;;;;;;;21.10;14.73;;;;;;;21.88;40.21;100331.53;4976989;28;123570;-76
2022/04/23 10:52:50;;;;;;;20.90;14.85;;;;;;;21.99;39.76;100337.72;4984783;28;123983;-76
2022/04/23 10:55:17;;;;;;;19.77;14.90;;;;;;;22.03;39.27;100331.00;4982733;28;118525;-74
2022/04/23 10:57:50;;;;;;;21.55;15.60;;;;;;;22.08;39.12;100326.00;4970994;28;119451;-76
2022/04/23 11:00:20;;;;;;;21.95;16.42;;;;;;;22.07;38.24;100325.13;4967395;28;124621;-76
2022/04/23 11:02:53;;;;;;;21.40;15.73;;;;;;;21.96;37.95;100339.72;4976414;28;124032;-76
2022/04/23 11:13:58;;;;;;;21.65;15.48;;;;;;;22.08;38.90;100316.03;4973098;28;123239;-76
2022/04/23 11:16:30;;;;;;;22.20;15.38;;;;;;;22.15;38.99;100325.19;4986169;28;120522;-75
2022/04/23 11:18:59;;;;;;;23.58;15.82;;;;;;;22.26;39.26;100324.09;4974967;28;118866;-75
2022/04/23 11:21:29;;;;;;;22.15;16.60;;;;;;;22.37;38.65;100320.31;4971642;28;123717;-75
2022/04/23 11:24:01;;;;;;;24.80;16.10;;;;;;;22.40;38.09;100319.16;4989424;28;122815;-75
2022/04/23 11:26:47;;;;;;;25.92;16.73;;;;;;;22.31;37.61;100315.56;4952267;28;119404;-75
2022/04/23 11:29:15;;;;;;;20.48;15.52;;;;;;;22.20;37.72;100313.94;4978426;28;119298;-75
2022/04/23 11:31:56;;;;;;;19.55;14.93;;;;;;;22.15;38.05;100313.53;4985991;28;123239;-76
2022/04/23 11:34:24;;;;;;;22.27;15.90;;;;;;;22.15;37.89;100316.25;4970997;28;122916;-75